Time,TemperatureF,DewpointF,PressureIn,WindDirection,WindDirectionDegrees,WindSpeedMPH,WindSpeedGustMPH,Humidity,HourlyPrecipIn,Conditions,Clouds,dailyrainin,SoftwareType,DateUTC
2013-02-02 00:00:00,20.9,7.1,30.16,WNW,292,9.7,9.7,54,-99.99,,,-99.99,tws,2013-02-02 05:00:00,
2013-02-02 00:01:00,20.9,7.1,30.16,WNW,292,13.8,13.8,54,-99.99,,,-99.99,tws,2013-02-02 05:01:00,
2013-02-02 00:06:00,20.9,6.9,30.16,NW,315,9.7,9.7,54,-99.99,,,-99.99,tws,2013-02-02 05:06:00,
2013-02-02 00:11:00,20.8,7.1,30.16,WNW,292,15.3,15.3,55,-99.99,,,-99.99,tws,2013-02-02 05:11:00,
2013-02-02 00:12:00,20.8,7.0,30.16,North,360,15.9,15.9,54,-99.99,,,-99.99,tws,2013-02-02 05:12:00,
2013-02-02 00:16:00,20.9,7.2,30.16,NNW,337,10.6,10.6,55,-99.99,,,-99.99,tws,2013-02-02 05:16:00,
2013-02-02 00:21:00,20.9,7.4,30.16,West,270,9.5,9.5,55,-99.99,,,-99.99,tws,2013-02-02 05:21:00,
2013-02-02 00:26:00,20.8,7.2,30.16,West,270,15.2,15.2,55,-99.99,,,-99.99,tws,2013-02-02 05:26:00,
2013-02-02 00:31:00,20.8,7.1,30.16,West,270,15.9,15.9,55,-99.99,,,-99.99,tws,2013-02-02 05:31:00,
2013-02-02 00:36:00,20.5,7.3,30.16,NW,315,11.5,11.5,56,-99.99,,,-99.99,tws,2013-02-02 05:36:00,
2013-02-02 00:41:00,20.8,7.1,30.16,WNW,292,14.6,14.6,55,-99.99,,,-99.99,tws,2013-02-02 05:41:00,
2013-02-02 00:46:00,20.7,7.6,30.16,WNW,292,5.5,5.5,56,-99.99,,,-99.99,tws,2013-02-02 05:46:00,
2013-02-02 00:51:00,20.4,7.4,30.16,NW,315,5.5,5.5,56,-99.99,,,-99.99,tws,2013-02-02 05:51:00,
2013-02-02 00:56:00,20.5,7.7,30.16,NW,315,4.7,4.7,57,-99.99,,,-99.99,tws,2013-02-02 05:56:00,
2013-02-02 01:01:00,20.4,7.6,30.16,NW,315,8.0,8.0,57,-99.99,,,-99.99,tws,2013-02-02 06:01:00,
2013-02-02 01:06:00,20.0,7.5,30.16,NW,315,4.3,4.3,58,-99.99,,,-99.99,tws,2013-02-02 06:06:00,
2013-02-02 01:11:00,20.3,7.7,30.17,NNW,337,5.4,5.4,57,-99.99,,,-99.99,tws,2013-02-02 06:11:00,
2013-02-02 01:16:00,20.3,7.9,30.17,NW,315,1.2,1.2,58,-99.99,,,-99.99,tws,2013-02-02 06:16:00,
2013-02-02 01:21:00,20.3,7.5,30.17,WNW,292,10.7,10.7,57,-99.99,,,-99.99,tws,2013-02-02 06:21:00,
2013-02-02 01:26:00,20.3,8.0,30.17,West,270,7.8,7.8,58,-99.99,,,-99.99,tws,2013-02-02 06:26:00,
2013-02-02 01:31:00,20.4,7.5,30.17,NW,315,17.1,17.1,57,-99.99,,,-99.99,tws,2013-02-02 06:31:00,
2013-02-02 01:36:00,20.4,7.7,30.18,WNW,292,8.7,8.7,57,-99.99,,,-99.99,tws,2013-02-02 06:36:00,
2013-02-02 01:41:00,20.7,7.8,30.18,WNW,292,4.1,4.1,57,-99.99,,,-99.99,tws,2013-02-02 06:41:00,
2013-02-02 01:46:00,20.4,8.0,30.18,North,0,1.0,1.0,58,-99.99,,,-99.99,tws,2013-02-02 06:46:00,
2013-02-02 01:51:00,20.0,8.0,30.18,WNW,292,4.2,4.2,59,-99.99,,,-99.99,tws,2013-02-02 06:51:00,
2013-02-02 01:56:00,20.0,7.9,30.18,WNW,292,6.5,6.5,59,-99.99,,,-99.99,tws,2013-02-02 06:56:00,
2013-02-02 02:01:00,19.6,8.0,30.18,WNW,292,3.8,3.8,60,-99.99,,,-99.99,tws,2013-02-02 07:01:00,
2013-02-02 02:06:00,20.1,8.1,30.18,NW,315,11.8,11.8,59,-99.99,,,-99.99,tws,2013-02-02 07:06:00,
2013-02-02 02:11:00,20.2,8.2,30.18,WNW,292,12.8,12.8,59,-99.99,,,-99.99,tws,2013-02-02 07:11:00,
2013-02-02 02:16:00,20.0,8.3,30.19,NNW,337,6.9,6.9,60,-99.99,,,-99.99,tws,2013-02-02 07:16:00,
2013-02-02 02:21:00,20.3,8.9,30.18,NE,45,0.2,0.2,60,-99.99,,,-99.99,tws,2013-02-02 07:21:00,
2013-02-02 02:26:00,20.1,9.3,30.19,NE,45,5.1,5.1,62,-99.99,,,-99.99,tws,2013-02-02 07:26:00,
2013-02-02 02:31:00,19.5,9.2,30.18,NE,45,5.9,5.9,63,-99.99,,,-99.99,tws,2013-02-02 07:31:00,
2013-02-02 02:36:00,20.0,10.1,30.19,NNE,22,0.4,0.4,65,-99.99,,,-99.99,tws,2013-02-02 07:36:00,
2013-02-02 02:41:00,19.2,9.7,30.19,NNE,22,7.1,7.1,66,-99.99,,,-99.99,tws,2013-02-02 07:41:00,
2013-02-02 02:46:00,19.3,10.4,30.19,East,90,1.3,1.3,67,-99.99,,,-99.99,tws,2013-02-02 07:46:00,
2013-02-02 02:51:00,18.9,10.3,30.19,ENE,67,3.6,3.6,69,-99.99,,,-99.99,tws,2013-02-02 07:51:00,
2013-02-02 02:56:00,18.0,10.2,30.19,ENE,67,2.5,2.5,71,-99.99,,,-99.99,tws,2013-02-02 07:56:00,
2013-02-02 03:01:00,18.0,10.9,30.19,East,90,6.0,6.0,73,-99.99,,,-99.99,tws,2013-02-02 08:01:00,
2013-02-02 03:06:00,17.6,11.4,30.19,NE,45,5.3,5.3,76,-99.99,,,-99.99,tws,2013-02-02 08:06:00,
2013-02-02 03:11:00,17.7,12.2,30.19,ENE,67,6.8,6.8,78,-99.99,,,-99.99,tws,2013-02-02 08:11:00,
2013-02-02 03:16:00,17.7,12.4,30.19,NNE,22,7.0,7.0,79,-99.99,,,-99.99,tws,2013-02-02 08:16:00,
2013-02-02 03:21:00,18.2,12.8,30.20,NNE,22,2.7,2.7,79,-99.99,,,-99.99,tws,2013-02-02 08:21:00,
2013-02-02 03:26:00,18.3,13.1,30.20,NNE,22,5.3,5.3,80,-99.99,,,-99.99,tws,2013-02-02 08:26:00,
2013-02-02 03:31:00,18.5,13.4,30.20,East,90,4.9,4.9,80,-99.99,,,-99.99,tws,2013-02-02 08:31:00,
2013-02-02 03:36:00,19.0,13.9,30.20,ENE,67,1.0,1.0,80,-99.99,,,-99.99,tws,2013-02-02 08:36:00,
2013-02-02 03:41:00,19.0,13.9,30.20,NNW,337,0.0,0.0,80,-99.99,,,-99.99,tws,2013-02-02 08:41:00,
2013-02-02 03:46:00,18.3,13.5,30.20,South,180,2.2,2.2,81,-99.99,,,-99.99,tws,2013-02-02 08:46:00,
2013-02-02 03:51:00,18.4,12.9,30.20,South,180,0.6,0.6,78,-99.99,,,-99.99,tws,2013-02-02 08:51:00,
2013-02-02 03:56:00,18.5,13.4,30.20,ENE,67,0.0,0.0,80,-99.99,,,-99.99,tws,2013-02-02 08:56:00,
2013-02-02 04:01:00,18.1,13.0,30.20,NE,45,3.4,3.4,80,-99.99,,,-99.99,tws,2013-02-02 09:01:00,
2013-02-02 04:06:00,18.1,12.9,30.20,East,90,3.7,3.7,80,-99.99,,,-99.99,tws,2013-02-02 09:06:00,
2013-02-02 04:11:00,17.8,12.9,30.20,North,360,0.0,0.0,80,-99.99,,,-99.99,tws,2013-02-02 09:11:00,
2013-02-02 04:16:00,18.5,12.7,30.20,NNE,22,0.0,0.0,77,-99.99,,,-99.99,tws,2013-02-02 09:16:00,
2013-02-02 04:21:00,18.2,12.7,30.20,NNE,22,0.4,0.4,79,-99.99,,,-99.99,tws,2013-02-02 09:21:00,
2013-02-02 04:26:00,17.8,12.5,30.20,ENE,67,0.5,0.5,79,-99.99,,,-99.99,tws,2013-02-02 09:26:00,
2013-02-02 04:31:00,17.5,12.3,30.20,NE,45,0.8,0.8,79,-99.99,,,-99.99,tws,2013-02-02 09:31:00,
2013-02-02 04:36:00,18.1,12.5,30.20,ENE,67,0.0,0.0,78,-99.99,,,-99.99,tws,2013-02-02 09:36:00,
2013-02-02 04:41:00,18.0,12.5,30.20,ESE,112,0.9,0.9,79,-99.99,,,-99.99,tws,2013-02-02 09:41:00,
2013-02-02 04:46:00,18.7,13.1,30.20,SSE,157,0.0,0.0,78,-99.99,,,-99.99,tws,2013-02-02 09:46:00,
2013-02-02 04:51:00,18.6,12.7,30.20,ESE,112,0.0,0.0,77,-99.99,,,-99.99,tws,2013-02-02 09:51:00,
2013-02-02 04:56:00,17.6,12.1,30.20,North,0,0.0,0.0,78,-99.99,,,-99.99,tws,2013-02-02 09:56:00,
2013-02-02 05:01:00,18.7,13.3,30.20,NNE,22,0.0,0.0,79,-99.99,,,-99.99,tws,2013-02-02 10:01:00,
2013-02-02 05:06:00,18.2,12.7,30.20,West,270,0.0,0.0,78,-99.99,,,-99.99,tws,2013-02-02 10:06:00,
2013-02-02 05:11:00,17.8,13.3,30.20,SSE,157,0.0,0.0,82,-99.99,,,-99.99,tws,2013-02-02 10:11:00,
2013-02-02 05:16:00,17.8,13.0,30.20,SE,135,2.1,2.1,81,-99.99,,,-99.99,tws,2013-02-02 10:16:00,
2013-02-02 05:21:00,18.6,13.1,30.20,SSE,157,0.0,0.0,78,-99.99,,,-99.99,tws,2013-02-02 10:21:00,
2013-02-02 05:26:00,19.0,13.4,30.20,SSE,157,0.0,0.0,78,-99.99,,,-99.99,tws,2013-02-02 10:26:00,
2013-02-02 05:31:00,18.3,12.5,30.20,SW,225,0.0,0.0,77,-99.99,,,-99.99,tws,2013-02-02 10:31:00,
2013-02-02 05:36:00,18.7,12.9,30.21,SSE,157,0.0,0.0,77,-99.99,,,-99.99,tws,2013-02-02 10:36:00,
2013-02-02 05:41:00,17.4,11.7,30.20,SE,135,0.8,0.8,78,-99.99,,,-99.99,tws,2013-02-02 10:41:00,
2013-02-02 05:46:00,17.1,12.0,30.20,SE,135,8.4,8.4,80,-99.99,,,-99.99,tws,2013-02-02 10:46:00,
2013-02-02 05:51:00,17.6,12.2,30.20,SSE,157,0.3,0.3,79,-99.99,,,-99.99,tws,2013-02-02 10:51:00,
2013-02-02 05:56:00,17.5,12.1,30.20,ESE,112,0.0,0.0,79,-99.99,,,-99.99,tws,2013-02-02 10:56:00,
2013-02-02 06:01:00,16.8,11.5,30.21,SSE,157,1.5,1.5,79,-99.99,,,-99.99,tws,2013-02-02 11:01:00,
2013-02-02 06:06:00,17.0,11.0,30.21,South,180,2.1,2.1,77,-99.99,,,-99.99,tws,2013-02-02 11:06:00,
2013-02-02 06:11:00,17.0,11.3,30.22,SSE,157,2.8,2.8,78,-99.99,,,-99.99,tws,2013-02-02 11:11:00,
2013-02-02 06:16:00,17.6,11.6,30.21,SE,135,1.0,1.0,77,-99.99,,,-99.99,tws,2013-02-02 11:16:00,
2013-02-02 06:21:00,18.0,12.2,30.21,SSE,157,0.0,0.0,78,-99.99,,,-99.99,tws,2013-02-02 11:21:00,
2013-02-02 06:26:00,18.0,12.1,30.21,SE,135,0.0,0.0,77,-99.99,,,-99.99,tws,2013-02-02 11:26:00,
2013-02-02 06:31:00,17.4,11.6,30.21,SE,135,0.0,0.0,77,-99.99,,,-99.99,tws,2013-02-02 11:31:00,
2013-02-02 06:36:00,17.4,11.7,30.21,ESE,112,0.1,0.1,78,-99.99,,,-99.99,tws,2013-02-02 11:36:00,
2013-02-02 06:41:00,16.6,11.2,30.21,ESE,112,0.0,0.0,78,-99.99,,,-99.99,tws,2013-02-02 11:41:00,
2013-02-02 06:46:00,16.6,11.5,30.22,SSE,157,0.0,0.0,80,-99.99,,,-99.99,tws,2013-02-02 11:46:00,
2013-02-02 06:51:00,16.8,11.8,30.21,SE,135,0.0,0.0,80,-99.99,,,-99.99,tws,2013-02-02 11:51:00,
2013-02-02 06:56:00,15.6,10.5,30.21,ESE,112,4.2,4.2,80,-99.99,,,-99.99,tws,2013-02-02 11:56:00,
2013-02-02 07:01:00,16.6,10.9,30.22,East,90,3.9,3.9,77,-99.99,,,-99.99,tws,2013-02-02 12:01:00,
2013-02-02 07:06:00,16.2,11.1,30.22,East,90,4.3,4.3,80,-99.99,,,-99.99,tws,2013-02-02 12:06:00,
2013-02-02 07:11:00,16.3,11.2,30.22,ESE,112,1.4,1.4,80,-99.99,,,-99.99,tws,2013-02-02 12:11:00,
2013-02-02 07:16:00,15.8,10.9,30.23,SSW,202,0.0,0.0,80,-99.99,,,-99.99,tws,2013-02-02 12:16:00,
2013-02-02 07:21:00,16.3,11.6,30.22,SSE,157,0.0,0.0,81,-99.99,,,-99.99,tws,2013-02-02 12:21:00,
2013-02-02 07:26:00,16.8,11.7,30.22,ESE,112,1.8,1.8,79,-99.99,,,-99.99,tws,2013-02-02 12:26:00,
2013-02-02 07:31:00,17.0,11.4,30.22,ESE,112,3.4,3.4,78,-99.99,,,-99.99,tws,2013-02-02 12:31:00,
2013-02-02 07:36:00,16.8,11.3,30.22,ESE,112,3.5,3.5,78,-99.99,,,-99.99,tws,2013-02-02 12:36:00,
2013-02-02 07:41:00,17.0,11.4,30.22,ESE,112,3.6,3.6,78,-99.99,,,-99.99,tws,2013-02-02 12:41:00,
2013-02-02 07:46:00,17.3,11.5,30.22,SE,135,3.6,3.6,77,-99.99,,,-99.99,tws,2013-02-02 12:46:00,
2013-02-02 07:51:00,17.5,11.6,30.22,SSE,157,3.0,3.0,77,-99.99,,,-99.99,tws,2013-02-02 12:51:00,
2013-02-02 07:56:00,18.1,12.2,30.22,SE,135,4.1,4.1,77,-99.99,,,-99.99,tws,2013-02-02 12:56:00,
2013-02-02 08:01:00,18.4,12.5,30.22,SE,135,4.5,4.5,77,-99.99,,,-99.99,tws,2013-02-02 13:01:00,
2013-02-02 08:06:00,18.5,12.1,30.22,SSE,157,4.4,4.4,75,-99.99,,,-99.99,tws,2013-02-02 13:06:00,
2013-02-02 08:11:00,19.1,12.5,30.22,SSE,157,1.4,1.4,75,-99.99,,,-99.99,tws,2013-02-02 13:11:00,
2013-02-02 08:16:00,19.4,13.0,30.22,SSE,157,5.5,5.5,75,-99.99,,,-99.99,tws,2013-02-02 13:16:00,
2013-02-02 08:21:00,18.9,11.9,30.22,SSE,157,12.9,12.9,74,-99.99,,,-99.99,tws,2013-02-02 13:21:00,
2013-02-02 08:26:00,19.4,12.2,30.22,SW,225,3.7,3.7,73,-99.99,,,-99.99,tws,2013-02-02 13:26:00,
2013-02-02 08:31:00,19.2,11.2,30.22,West,270,15.7,15.7,70,-99.99,,,-99.99,tws,2013-02-02 13:31:00,
2013-02-02 08:36:00,19.2,11.2,30.22,WSW,247,13.5,13.5,70,-99.99,,,-99.99,tws,2013-02-02 13:36:00,
2013-02-02 08:41:00,19.9,11.7,30.22,SW,225,9.5,9.5,70,-99.99,,,-99.99,tws,2013-02-02 13:41:00,
2013-02-02 08:46:00,20.0,11.6,30.22,WSW,247,15.0,15.0,69,-99.99,,,-99.99,tws,2013-02-02 13:46:00,
2013-02-02 08:51:00,20.8,12.3,30.21,SSW,202,10.1,10.1,69,-99.99,,,-99.99,tws,2013-02-02 13:51:00,
2013-02-02 08:56:00,20.5,11.5,30.21,SW,225,17.8,17.8,67,-99.99,,,-99.99,tws,2013-02-02 13:56:00,
2013-02-02 09:01:00,20.0,10.9,30.21,South,180,18.6,18.6,67,-99.99,,,-99.99,tws,2013-02-02 14:01:00,
2013-02-02 09:06:00,20.1,10.7,30.22,West,270,17.6,17.6,66,-99.99,,,-99.99,tws,2013-02-02 14:06:00,
2013-02-02 09:11:00,20.4,11.0,30.22,West,270,16.1,16.1,66,-99.99,,,-99.99,tws,2013-02-02 14:11:00,
2013-02-02 09:16:00,20.5,10.8,30.22,WSW,247,18.1,18.1,65,-99.99,,,-99.99,tws,2013-02-02 14:16:00,
2013-02-02 09:21:00,20.8,10.9,30.22,South,180,9.4,9.4,65,-99.99,,,-99.99,tws,2013-02-02 14:21:00,
2013-02-02 09:26:00,20.8,10.9,30.22,WSW,247,16.0,16.0,65,-99.99,,,-99.99,tws,2013-02-02 14:26:00,
2013-02-02 09:31:00,21.1,10.7,30.21,SW,225,20.8,20.8,63,-99.99,,,-99.99,tws,2013-02-02 14:31:00,
2013-02-02 09:36:00,22.0,11.2,30.21,SSW,202,12.4,12.4,62,-99.99,,,-99.99,tws,2013-02-02 14:36:00,
2013-02-02 09:41:00,22.9,12.2,30.20,SSW,202,11.3,11.3,63,-99.99,,,-99.99,tws,2013-02-02 14:41:00,
2013-02-02 09:46:00,22.9,11.7,30.20,SSW,202,11.7,11.7,61,-99.99,,,-99.99,tws,2013-02-02 14:46:00,
2013-02-02 09:51:00,22.8,11.5,30.20,SSW,202,12.7,12.7,61,-99.99,,,-99.99,tws,2013-02-02 14:51:00,
2013-02-02 09:56:00,24.0,12.4,30.20,West,270,12.7,12.7,60,-99.99,,,-99.99,tws,2013-02-02 14:56:00,
2013-02-02 10:01:00,24.1,12.4,30.20,SE,135,9.4,9.4,60,-99.99,,,-99.99,tws,2013-02-02 15:01:00,
2013-02-02 10:06:00,24.1,12.0,30.20,South,180,10.8,10.8,59,-99.99,,,-99.99,tws,2013-02-02 15:06:00,
2013-02-02 10:11:00,23.0,10.9,30.20,South,180,12.7,12.7,59,-99.99,,,-99.99,tws,2013-02-02 15:11:00,
2013-02-02 10:16:00,22.7,10.6,30.20,WSW,247,15.8,15.8,59,-99.99,,,-99.99,tws,2013-02-02 15:16:00,
2013-02-02 10:21:00,25.5,12.3,30.20,SSW,202,4.9,4.9,57,-99.99,,,-99.99,tws,2013-02-02 15:21:00,
2013-02-02 10:26:00,24.0,11.5,30.20,SE,135,18.3,18.3,58,-99.99,,,-99.99,tws,2013-02-02 15:26:00,
2013-02-02 10:31:00,23.6,10.5,30.19,SW,225,19.8,19.8,57,-99.99,,,-99.99,tws,2013-02-02 15:31:00,
2013-02-02 10:36:00,23.9,11.0,30.19,South,180,13.5,13.5,57,-99.99,,,-99.99,tws,2013-02-02 15:36:00,
2013-02-02 10:41:00,24.0,10.8,30.18,SSE,157,17.7,17.7,56,-99.99,,,-99.99,tws,2013-02-02 15:41:00,
2013-02-02 10:46:00,24.3,10.3,30.18,SE,135,24.3,24.3,54,-99.99,,,-99.99,tws,2013-02-02 15:46:00,
2013-02-02 10:51:00,24.5,10.7,30.18,South,180,16.5,16.5,55,-99.99,,,-99.99,tws,2013-02-02 15:51:00,
2013-02-02 10:56:00,24.9,10.8,30.18,SSE,157,19.8,19.8,54,-99.99,,,-99.99,tws,2013-02-02 15:56:00,
2013-02-02 11:01:00,25.3,10.9,30.18,SSE,157,20.8,20.8,54,-99.99,,,-99.99,tws,2013-02-02 16:01:00,
2013-02-02 11:06:00,26.0,11.1,30.17,SE,135,19.0,19.0,53,-99.99,,,-99.99,tws,2013-02-02 16:06:00,
2013-02-02 11:11:00,25.2,10.5,30.17,ESE,112,21.3,21.3,53,-99.99,,,-99.99,tws,2013-02-02 16:11:00,
2013-02-02 11:16:00,26.6,11.3,30.16,SSW,202,13.6,13.6,52,-99.99,,,-99.99,tws,2013-02-02 16:16:00,
2013-02-02 11:21:00,25.5,10.1,30.16,WSW,247,20.3,20.3,51,-99.99,,,-99.99,tws,2013-02-02 16:21:00,
2013-02-02 11:26:00,26.1,10.7,30.16,WSW,247,19.7,19.7,52,-99.99,,,-99.99,tws,2013-02-02 16:26:00,
2013-02-02 11:31:00,26.2,10.8,30.15,WSW,247,17.4,17.4,52,-99.99,,,-99.99,tws,2013-02-02 16:31:00,
2013-02-02 11:36:00,27.3,11.9,30.15,WSW,247,15.8,15.8,52,-99.99,,,-99.99,tws,2013-02-02 16:36:00,
2013-02-02 11:41:00,27.0,11.7,30.14,South,180,12.3,12.3,52,-99.99,,,-99.99,tws,2013-02-02 16:41:00,
2013-02-02 11:46:00,28.1,12.2,30.14,SE,135,11.5,11.5,51,-99.99,,,-99.99,tws,2013-02-02 16:46:00,
2013-02-02 11:51:00,27.3,11.4,30.14,South,180,14.9,14.9,50,-99.99,,,-99.99,tws,2013-02-02 16:51:00,
2013-02-02 11:56:00,26.8,11.3,30.13,WSW,247,20.3,20.3,51,-99.99,,,-99.99,tws,2013-02-02 16:56:00,
2013-02-02 12:01:00,28.1,12.5,30.12,SSE,157,17.3,17.3,51,-99.99,,,-99.99,tws,2013-02-02 17:01:00,
2013-02-02 12:06:00,26.8,10.9,30.12,SSE,157,23.4,23.4,50,-99.99,,,-99.99,tws,2013-02-02 17:06:00,
2013-02-02 12:11:00,26.8,11.3,30.12,West,270,20.8,20.8,51,-99.99,,,-99.99,tws,2013-02-02 17:11:00,
2013-02-02 12:16:00,28.8,12.9,30.11,South,180,17.6,17.6,51,-99.99,,,-99.99,tws,2013-02-02 17:16:00,
2013-02-02 12:21:00,28.2,12.3,30.11,SSW,202,17.2,17.2,51,-99.99,,,-99.99,tws,2013-02-02 17:21:00,
2013-02-02 12:26:00,29.1,13.0,30.11,South,180,15.3,15.3,50,-99.99,,,-99.99,tws,2013-02-02 17:26:00,
2013-02-02 12:31:00,29.1,12.4,30.11,SSW,202,13.5,13.5,49,-99.99,,,-99.99,tws,2013-02-02 17:31:00,
2013-02-02 12:36:00,27.5,11.4,30.11,South,180,16.7,16.7,50,-99.99,,,-99.99,tws,2013-02-02 17:36:00,
2013-02-02 12:41:00,27.1,11.3,30.10,South,180,14.4,14.4,51,-99.99,,,-99.99,tws,2013-02-02 17:41:00,
2013-02-02 12:46:00,27.9,10.3,30.10,SW,225,24.4,24.4,47,-99.99,,,-99.99,tws,2013-02-02 17:46:00,
2013-02-02 12:51:00,28.9,12.0,30.09,SSE,157,19.7,19.7,48,-99.99,,,-99.99,tws,2013-02-02 17:51:00,
2013-02-02 12:56:00,29.3,12.7,30.09,West,270,12.2,12.2,49,-99.99,,,-99.99,tws,2013-02-02 17:56:00,
2013-02-02 13:01:00,29.0,11.8,30.09,SW,225,24.1,24.1,48,-99.99,,,-99.99,tws,2013-02-02 18:01:00,
2013-02-02 13:06:00,29.4,12.2,30.08,ESE,112,14.2,14.2,48,-99.99,,,-99.99,tws,2013-02-02 18:06:00,
2013-02-02 13:11:00,29.1,12.2,30.08,South,180,18.4,18.4,48,-99.99,,,-99.99,tws,2013-02-02 18:11:00,
2013-02-02 13:16:00,28.3,12.1,30.08,SSW,202,6.5,6.5,50,-99.99,,,-99.99,tws,2013-02-02 18:16:00,
2013-02-02 13:21:00,26.0,9.5,30.08,WSW,247,18.9,18.9,49,-99.99,,,-99.99,tws,2013-02-02 18:21:00,
2013-02-02 13:26:00,25.6,9.4,30.08,SSW,202,29.2,29.2,49,-99.99,,,-99.99,tws,2013-02-02 18:26:00,
2013-02-02 13:31:00,24.8,8.1,30.07,WSW,247,30.2,30.2,48,-99.99,,,-99.99,tws,2013-02-02 18:31:00,
2013-02-02 13:36:00,25.8,8.9,30.08,WSW,247,25.5,25.5,48,-99.99,,,-99.99,tws,2013-02-02 18:36:00,
2013-02-02 13:41:00,26.8,9.7,30.07,SW,225,17.3,17.3,48,-99.99,,,-99.99,tws,2013-02-02 18:41:00,
2013-02-02 13:46:00,26.7,9.4,30.07,SW,225,19.0,19.0,47,-99.99,,,-99.99,tws,2013-02-02 18:46:00,
2013-02-02 13:51:00,27.0,9.4,30.07,SSW,202,23.7,23.7,47,-99.99,,,-99.99,tws,2013-02-02 18:51:00,
2013-02-02 13:56:00,27.5,9.6,30.06,West,270,19.0,19.0,46,-99.99,,,-99.99,tws,2013-02-02 18:56:00,
2013-02-02 14:01:00,27.2,9.4,30.06,SSW,202,18.5,18.5,46,-99.99,,,-99.99,tws,2013-02-02 19:01:00,
2013-02-02 14:06:00,26.7,8.5,30.06,SSW,202,22.4,22.4,45,-99.99,,,-99.99,tws,2013-02-02 19:06:00,
2013-02-02 14:11:00,27.6,9.6,30.05,SSW,202,12.3,12.3,46,-99.99,,,-99.99,tws,2013-02-02 19:11:00,
2013-02-02 14:16:00,27.1,9.2,30.05,WNW,292,21.9,21.9,46,-99.99,,,-99.99,tws,2013-02-02 19:16:00,
2013-02-02 14:21:00,27.3,8.7,30.05,SSW,202,23.4,23.4,45,-99.99,,,-99.99,tws,2013-02-02 19:21:00,
2013-02-02 14:26:00,28.5,10.2,30.04,South,180,14.4,14.4,45,-99.99,,,-99.99,tws,2013-02-02 19:26:00,
2013-02-02 14:31:00,27.9,9.3,30.04,SW,225,23.1,23.1,45,-99.99,,,-99.99,tws,2013-02-02 19:31:00,
2013-02-02 14:36:00,27.2,8.6,30.04,WNW,292,20.6,20.6,45,-99.99,,,-99.99,tws,2013-02-02 19:36:00,
2013-02-02 14:41:00,28.1,9.5,30.04,South,180,9.7,9.7,45,-99.99,,,-99.99,tws,2013-02-02 19:41:00,
2013-02-02 14:46:00,28.5,9.7,30.04,South,180,13.1,13.1,44,-99.99,,,-99.99,tws,2013-02-02 19:46:00,
2013-02-02 14:51:00,28.9,10.0,30.04,SSW,202,16.0,16.0,44,-99.99,,,-99.99,tws,2013-02-02 19:51:00,
2013-02-02 14:56:00,28.3,9.3,30.04,WSW,247,17.6,17.6,44,-99.99,,,-99.99,tws,2013-02-02 19:56:00,
2013-02-02 15:01:00,27.9,9.7,30.04,SW,225,17.7,17.7,46,-99.99,,,-99.99,tws,2013-02-02 20:01:00,
2013-02-02 15:06:00,27.3,9.7,30.03,WSW,247,22.9,22.9,47,-99.99,,,-99.99,tws,2013-02-02 20:06:00,
2013-02-02 15:11:00,27.3,9.6,30.03,South,180,25.9,25.9,47,-99.99,,,-99.99,tws,2013-02-02 20:11:00,
2013-02-02 15:16:00,27.6,9.7,30.03,SSW,202,18.5,18.5,46,-99.99,,,-99.99,tws,2013-02-02 20:16:00,
2013-02-02 15:21:00,27.2,10.2,30.03,SSW,202,11.2,11.2,48,-99.99,,,-99.99,tws,2013-02-02 20:21:00,
2013-02-02 15:26:00,26.8,9.3,30.02,SSW,202,24.5,24.5,47,-99.99,,,-99.99,tws,2013-02-02 20:26:00,
2013-02-02 15:31:00,26.8,9.5,30.02,South,180,24.0,24.0,47,-99.99,,,-99.99,tws,2013-02-02 20:31:00,
2013-02-02 15:36:00,26.8,9.7,30.02,SSE,157,18.7,18.7,48,-99.99,,,-99.99,tws,2013-02-02 20:36:00,
2013-02-02 15:41:00,26.5,9.3,30.02,South,180,26.9,26.9,47,-99.99,,,-99.99,tws,2013-02-02 20:41:00,
2013-02-02 15:46:00,26.2,9.0,30.02,SSW,202,24.9,24.9,47,-99.99,,,-99.99,tws,2013-02-02 20:46:00,
2013-02-02 15:51:00,26.5,9.6,30.02,SSW,202,13.3,13.3,48,-99.99,,,-99.99,tws,2013-02-02 20:51:00,
2013-02-02 15:56:00,26.1,9.4,30.02,SSE,157,17.6,17.6,48,-99.99,,,-99.99,tws,2013-02-02 20:56:00,
2013-02-02 16:01:00,26.3,9.6,30.02,SW,225,13.6,13.6,49,-99.99,,,-99.99,tws,2013-02-02 21:01:00,
2013-02-02 16:06:00,26.4,9.8,30.02,SSW,202,15.1,15.1,49,-99.99,,,-99.99,tws,2013-02-02 21:06:00,
2013-02-02 16:11:00,26.0,9.6,30.02,SSE,157,18.4,18.4,49,-99.99,,,-99.99,tws,2013-02-02 21:11:00,
2013-02-02 16:16:00,26.1,9.8,30.02,SW,225,9.3,9.3,49,-99.99,,,-99.99,tws,2013-02-02 21:16:00,
2013-02-02 16:21:00,25.5,9.5,30.02,WSW,247,19.4,19.4,50,-99.99,,,-99.99,tws,2013-02-02 21:21:00,
2013-02-02 16:26:00,25.4,9.6,30.02,WSW,247,21.7,21.7,50,-99.99,,,-99.99,tws,2013-02-02 21:26:00,
2013-02-02 16:31:00,25.2,9.6,30.02,South,180,19.5,19.5,51,-99.99,,,-99.99,tws,2013-02-02 21:31:00,
2013-02-02 16:36:00,25.5,9.9,30.02,West,270,14.8,14.8,51,-99.99,,,-99.99,tws,2013-02-02 21:36:00,
2013-02-02 16:41:00,25.0,10.0,30.02,WNW,292,14.6,14.6,52,-99.99,,,-99.99,tws,2013-02-02 21:41:00,
2013-02-02 16:46:00,24.8,10.1,30.02,WSW,247,18.2,18.2,53,-99.99,,,-99.99,tws,2013-02-02 21:46:00,
2013-02-02 16:51:00,24.5,10.3,30.02,SSW,202,21.2,21.2,54,-99.99,,,-99.99,tws,2013-02-02 21:51:00,
2013-02-02 16:56:00,24.1,10.2,30.02,WSW,247,26.5,26.5,55,-99.99,,,-99.99,tws,2013-02-02 21:56:00,
2013-02-02 17:01:00,24.0,10.5,30.02,South,180,21.8,21.8,55,-99.99,,,-99.99,tws,2013-02-02 22:01:00,
2013-02-02 17:06:00,24.0,10.8,30.03,SSE,157,20.9,20.9,56,-99.99,,,-99.99,tws,2013-02-02 22:06:00,
2013-02-02 17:11:00,23.9,10.7,30.03,SW,225,18.5,18.5,56,-99.99,,,-99.99,tws,2013-02-02 22:11:00,
2013-02-02 17:16:00,23.8,11.2,30.03,WSW,247,12.2,12.2,58,-99.99,,,-99.99,tws,2013-02-02 22:16:00,
2013-02-02 17:21:00,23.7,11.1,30.03,SW,225,17.5,17.5,58,-99.99,,,-99.99,tws,2013-02-02 22:21:00,
2013-02-02 17:26:00,23.4,11.2,30.03,South,180,23.4,23.4,59,-99.99,,,-99.99,tws,2013-02-02 22:26:00,
2013-02-02 17:31:00,23.4,11.2,30.03,South,180,20.4,20.4,59,-99.99,,,-99.99,tws,2013-02-02 22:31:00,
2013-02-02 17:36:00,23.5,11.5,30.03,South,180,10.3,10.3,59,-99.99,,,-99.99,tws,2013-02-02 22:36:00,
2013-02-02 17:41:00,23.5,11.5,30.03,South,180,18.6,18.6,59,-99.99,,,-99.99,tws,2013-02-02 22:41:00,
2013-02-02 17:46:00,23.4,11.7,30.03,SE,135,14.9,14.9,60,-99.99,,,-99.99,tws,2013-02-02 22:46:00,
2013-02-02 17:51:00,23.2,11.5,30.03,SSW,202,12.2,12.2,60,-99.99,,,-99.99,tws,2013-02-02 22:51:00,
2013-02-02 17:56:00,23.4,11.7,30.03,SSW,202,8.6,8.6,60,-99.99,,,-99.99,tws,2013-02-02 22:56:00,
2013-02-02 18:01:00,23.1,11.3,30.04,WSW,247,20.5,20.5,60,-99.99,,,-99.99,tws,2013-02-02 23:01:00,
2013-02-02 18:06:00,22.9,11.5,30.04,South,180,19.3,19.3,61,-99.99,,,-99.99,tws,2013-02-02 23:06:00,
2013-02-02 18:11:00,22.8,11.6,30.04,West,270,15.5,15.5,61,-99.99,,,-99.99,tws,2013-02-02 23:11:00,
2013-02-02 18:16:00,22.8,11.4,30.03,WSW,247,22.4,22.4,61,-99.99,,,-99.99,tws,2013-02-02 23:16:00,
2013-02-02 18:21:00,22.8,11.9,30.03,SW,225,12.0,12.0,62,-99.99,,,-99.99,tws,2013-02-02 23:21:00,
2013-02-02 18:26:00,22.7,11.5,30.03,South,180,26.2,26.2,61,-99.99,,,-99.99,tws,2013-02-02 23:26:00,
2013-02-02 18:31:00,22.7,11.6,30.04,SSW,202,11.6,11.6,62,-99.99,,,-99.99,tws,2013-02-02 23:31:00,
2013-02-02 18:36:00,22.6,11.9,30.04,WSW,247,15.9,15.9,63,-99.99,,,-99.99,tws,2013-02-02 23:36:00,
2013-02-02 18:41:00,22.6,11.9,30.04,SW,225,11.0,11.0,63,-99.99,,,-99.99,tws,2013-02-02 23:41:00,
2013-02-02 18:46:00,22.5,11.9,30.04,SW,225,16.0,16.0,63,-99.99,,,-99.99,tws,2013-02-02 23:46:00,
2013-02-02 18:51:00,22.5,12.0,30.04,West,270,15.3,15.3,63,-99.99,,,-99.99,tws,2013-02-02 23:51:00,
2013-02-02 18:56:00,22.3,12.0,30.04,WSW,247,11.2,11.2,64,-99.99,,,-99.99,tws,2013-02-02 23:56:00,
2013-02-02 19:01:00,22.3,11.9,30.04,SSW,202,25.0,25.0,63,-99.99,,,-99.99,tws,2013-02-03 00:01:00,
2013-02-02 19:06:00,22.2,11.9,30.03,WSW,247,20.1,20.1,64,-99.99,,,-99.99,tws,2013-02-03 00:06:00,
2013-02-02 19:11:00,22.2,12.0,30.04,WSW,247,19.7,19.7,64,-99.99,,,-99.99,tws,2013-02-03 00:11:00,
2013-02-02 19:16:00,22.1,11.9,30.04,SSE,157,20.3,20.3,64,-99.99,,,-99.99,tws,2013-02-03 00:16:00,
2013-02-02 19:21:00,22.1,12.0,30.05,WSW,247,15.5,15.5,64,-99.99,,,-99.99,tws,2013-02-03 00:21:00,
2013-02-02 19:26:00,22.0,12.1,30.05,WSW,247,19.3,19.3,65,-99.99,,,-99.99,tws,2013-02-03 00:26:00,
2013-02-02 19:31:00,22.0,12.5,30.04,SW,225,17.4,17.4,66,-99.99,,,-99.99,tws,2013-02-03 00:31:00,
2013-02-02 19:36:00,21.8,12.8,30.04,SSW,202,19.6,19.6,68,-99.99,,,-99.99,tws,2013-02-03 00:36:00,
2013-02-02 19:41:00,21.7,12.9,30.04,South,180,16.3,16.3,68,-99.99,,,-99.99,tws,2013-02-03 00:41:00,
2013-02-02 19:46:00,21.8,13.4,30.04,SW,225,12.7,12.7,69,-99.99,,,-99.99,tws,2013-02-03 00:46:00,
2013-02-02 19:51:00,21.6,13.5,30.05,WSW,247,16.8,16.8,70,-99.99,,,-99.99,tws,2013-02-03 00:51:00,
2013-02-02 19:56:00,21.3,13.8,30.05,SSW,202,20.6,20.6,72,-99.99,,,-99.99,tws,2013-02-03 00:56:00,
2013-02-02 20:01:00,21.1,14.3,30.05,WSW,247,16.6,16.6,74,-99.99,,,-99.99,tws,2013-02-03 01:01:00,
2013-02-02 20:06:00,21.2,14.4,30.05,SSW,202,14.8,14.8,74,-99.99,,,-99.99,tws,2013-02-03 01:06:00,
2013-02-02 20:11:00,21.2,14.6,30.05,WSW,247,8.1,8.1,75,-99.99,,,-99.99,tws,2013-02-03 01:11:00,
2013-02-02 20:16:00,21.1,14.8,30.05,SSW,202,12.2,12.2,76,-99.99,,,-99.99,tws,2013-02-03 01:16:00,
2013-02-02 20:21:00,21.1,15.0,30.05,SSW,202,11.4,11.4,77,-99.99,,,-99.99,tws,2013-02-03 01:21:00,
2013-02-02 20:26:00,21.3,15.3,30.05,SSW,202,6.0,6.0,77,-99.99,,,-99.99,tws,2013-02-03 01:26:00,
2013-02-02 20:31:00,21.0,15.2,30.05,SW,225,11.4,11.4,78,-99.99,,,-99.99,tws,2013-02-03 01:31:00,
2013-02-02 20:36:00,21.0,15.3,30.05,South,180,7.8,7.8,78,-99.99,,,-99.99,tws,2013-02-03 01:36:00,
2013-02-02 20:41:00,21.0,15.4,30.06,WSW,247,15.5,15.5,78,-99.99,,,-99.99,tws,2013-02-03 01:41:00,
2013-02-02 20:46:00,20.9,15.6,30.05,WSW,247,13.1,13.1,79,-99.99,,,-99.99,tws,2013-02-03 01:46:00,
2013-02-02 20:51:00,20.5,15.5,30.05,SSE,157,17.8,17.8,80,-99.99,,,-99.99,tws,2013-02-03 01:51:00,
2013-02-02 20:56:00,20.4,15.6,30.05,WSW,247,11.4,11.4,81,-99.99,,,-99.99,tws,2013-02-03 01:56:00,
2013-02-02 21:01:00,20.2,15.8,30.05,WSW,247,14.8,14.8,82,-99.99,,,-99.99,tws,2013-02-03 02:01:00,
2013-02-02 21:06:00,20.3,15.9,30.05,SW,225,11.8,11.8,82,-99.99,,,-99.99,tws,2013-02-03 02:06:00,
2013-02-02 21:11:00,20.2,16.2,30.05,WSW,247,10.5,10.5,84,-99.99,,,-99.99,tws,2013-02-03 02:11:00,
2013-02-02 21:16:00,20.2,16.2,30.05,WSW,247,12.7,12.7,84,-99.99,,,-99.99,tws,2013-02-03 02:16:00,
2013-02-02 21:21:00,20.2,16.4,30.05,SSW,202,9.8,9.8,84,-99.99,,,-99.99,tws,2013-02-03 02:21:00,
2013-02-02 21:26:00,20.2,16.6,30.06,SSW,202,6.5,6.5,85,-99.99,,,-99.99,tws,2013-02-03 02:26:00,
2013-02-02 21:31:00,20.3,16.6,30.05,SW,225,9.4,9.4,85,-99.99,,,-99.99,tws,2013-02-03 02:31:00,
2013-02-02 21:36:00,20.1,16.4,30.05,SSW,202,13.1,13.1,85,-99.99,,,-99.99,tws,2013-02-03 02:36:00,
2013-02-02 21:41:00,20.4,16.9,30.05,SW,225,6.9,6.9,85,-99.99,,,-99.99,tws,2013-02-03 02:41:00,
2013-02-02 21:46:00,20.3,16.6,30.05,South,180,8.2,8.2,85,-99.99,,,-99.99,tws,2013-02-03 02:46:00,
2013-02-02 21:51:00,20.3,16.6,30.05,South,180,10.1,10.1,85,-99.99,,,-99.99,tws,2013-02-03 02:51:00,
2013-02-02 21:56:00,20.5,16.8,30.05,SSW,202,3.0,3.0,85,-99.99,,,-99.99,tws,2013-02-03 02:56:00,
2013-02-02 22:01:00,20.3,16.5,30.05,WSW,247,9.4,9.4,84,-99.99,,,-99.99,tws,2013-02-03 03:01:00,
2013-02-02 22:06:00,20.3,16.5,30.05,South,180,10.3,10.3,84,-99.99,,,-99.99,tws,2013-02-03 03:06:00,
2013-02-02 22:11:00,20.3,16.5,30.05,SW,225,6.3,6.3,84,-99.99,,,-99.99,tws,2013-02-03 03:11:00,
2013-02-02 22:16:00,20.4,16.3,30.05,SW,225,8.1,8.1,83,-99.99,,,-99.99,tws,2013-02-03 03:16:00,
2013-02-02 22:21:00,20.5,16.6,30.05,SSW,202,3.7,3.7,84,-99.99,,,-99.99,tws,2013-02-03 03:21:00,
2013-02-02 22:26:00,20.3,16.5,30.05,South,180,4.4,4.4,84,-99.99,,,-99.99,tws,2013-02-03 03:26:00,
2013-02-02 22:31:00,20.4,16.5,30.05,WSW,247,3.4,3.4,84,-99.99,,,-99.99,tws,2013-02-03 03:31:00,
2013-02-02 22:36:00,20.4,16.3,30.05,SSW,202,6.0,6.0,83,-99.99,,,-99.99,tws,2013-02-03 03:36:00,
2013-02-02 22:42:00,20.5,16.6,30.05,South,180,2.8,2.8,84,-99.99,,,-99.99,tws,2013-02-03 03:42:00,
2013-02-02 22:47:00,20.7,16.6,30.05,SW,225,4.3,4.3,84,-99.99,,,-99.99,tws,2013-02-03 03:47:00,
2013-02-02 22:52:00,20.7,16.6,30.04,South,180,0.8,0.8,84,-99.99,,,-99.99,tws,2013-02-03 03:52:00,
2013-02-02 22:57:00,20.7,16.6,30.04,South,180,5.8,5.8,84,-99.99,,,-99.99,tws,2013-02-03 03:57:00,
2013-02-02 23:02:00,20.8,16.8,30.04,SSE,157,2.0,2.0,84,-99.99,,,-99.99,tws,2013-02-03 04:02:00,
2013-02-02 23:07:00,20.7,16.6,30.04,South,180,3.9,3.9,84,-99.99,,,-99.99,tws,2013-02-03 04:07:00,
2013-02-02 23:12:00,20.7,16.6,30.04,SSE,157,6.3,6.3,84,-99.99,,,-99.99,tws,2013-02-03 04:12:00,
2013-02-02 23:17:00,20.4,16.0,30.04,South,180,9.1,9.1,82,-99.99,,,-99.99,tws,2013-02-03 04:17:00,
2013-02-02 23:22:00,20.5,16.3,30.04,SW,225,8.1,8.1,83,-99.99,,,-99.99,tws,2013-02-03 04:22:00,
2013-02-02 23:27:00,20.4,16.2,30.04,South,180,9.2,9.2,83,-99.99,,,-99.99,tws,2013-02-03 04:27:00,
2013-02-02 23:32:00,20.3,16.1,30.04,SSW,202,6.0,6.0,83,-99.99,,,-99.99,tws,2013-02-03 04:32:00,
2013-02-02 23:37:00,20.3,16.1,30.04,SSW,202,8.6,8.6,83,-99.99,,,-99.99,tws,2013-02-03 04:37:00,
2013-02-02 23:42:00,20.3,16.1,30.03,SSW,202,10.6,10.6,83,-99.99,,,-99.99,tws,2013-02-03 04:42:00,
2013-02-02 23:47:00,20.3,16.2,30.03,South,180,9.7,9.7,83,-99.99,,,-99.99,tws,2013-02-03 04:47:00,
2013-02-02 23:52:00,20.4,16.4,30.03,South,180,6.5,6.5,84,-99.99,,,-99.99,tws,2013-02-03 04:52:00,
2013-02-02 23:57:00,20.1,16.1,30.02,SSE,157,2.7,2.7,84,-99.99,,,-99.99,tws,2013-02-03 04:57:00,